Time;durP1;ratioP1;P1;durP2;ratioP2;P2;SDS_P1;SDS_P2;PMS_P1;PMS_P2;Temp;Humidity;BMP_temperature;BMP_pressure;BME280_temperature;BME280_humidity;BME280_pressure;Samples;Min_cycle;Max_cycle;Signal;HPM_P1;HPM_P2
2022/11/15 00:00:40;;;;;;;;;;;;;;;11.05;100.00;98891.34;8314656;28;19941;-77
2022/11/15 00:04:41;;;;;;;;;;;;;;;11.07;100.00;98894.78;8300334;28;19933;-76
2022/11/15 00:08:43;;;;;;;;;;;;;;;11.07;100.00;98898.22;8317848;28;19963;-78
2022/11/15 00:12:44;;;;;;;;;;;;;;;11.09;100.00;98893.88;8319712;28;20405;-76
2022/11/15 00:16:45;;;;;;;;;;;;;;;11.09;100.00;98888.69;8312133;28;20321;-79
2022/11/15 00:20:47;;;;;;;;;;;;;;;11.09;100.00;98893.00;8319906;28;19929;-76
2022/11/15 00:24:48;;;;;;;;;;;;;;;11.10;100.00;98897.31;8318695;28;19929;-76
2022/11/15 00:28:51;;;;;;;;;;;;;;;11.12;100.00;98893.81;8318512;28;20353;-76
2022/11/15 00:37:03;;;;;;;;;;;;;;;11.17;100.00;98894.63;8258902;22;19929;-77
2022/11/15 00:41:05;;;;;;;;;;;;;;;11.17;100.00;98888.59;8267267;28;19929;-76
2022/11/15 00:45:10;;;;;;;;;;;;;;;11.15;100.00;98885.16;8247212;28;19930;-77
2022/11/15 00:49:11;;;;;;;;;;;;;;;11.11;100.00;98886.06;8233225;28;19941;-77
2022/11/15 00:53:12;;;;;;;;;;;;;;;11.11;100.00;98888.66;8254114;28;19942;-80
2022/11/15 00:57:14;;;;;;;;;;;;;;;11.09;100.00;98885.22;8254428;28;20586;-77
2022/11/15 01:01:15;;;;;;;;;;;;;;;11.11;100.00;98880.84;8258096;28;20469;-78
2022/11/15 01:05:16;;;;;;;;;;;;;;;11.12;100.00;98878.22;8264065;28;19934;-79
2022/11/15 01:09:18;;;;;;;;;;;;;;;11.12;100.00;98878.22;8266790;28;19983;-77
2022/11/15 01:13:19;;;;;;;;;;;;;;;11.12;100.00;98883.44;8262837;28;19930;-77
2022/11/15 01:17:20;;;;;;;;;;;;;;;11.11;100.00;98886.06;8241296;28;19929;-79
2022/11/15 01:21:22;;;;;;;;;;;;;;;11.13;100.00;98879.09;8266046;28;19960;-79
2022/11/15 01:25:23;;;;;;;;;;;;;;;11.12;100.00;98880.84;8270732;28;19929;-77
2022/11/15 01:29:24;;;;;;;;;;;;;;;11.13;100.00;98889.47;8260409;28;20399;-80
2022/11/15 01:33:26;;;;;;;;;;;;;;;11.12;100.00;98886.03;8256214;28;19933;-77
2022/11/15 01:37:27;;;;;;;;;;;;;;;11.12;100.00;98877.38;8264800;28;19929;-78
2022/11/15 01:41:30;;;;;;;;;;;;;;;11.14;100.00;98880.84;8262071;28;19934;-79
2022/11/15 01:45:32;;;;;;;;;;;;;;;11.16;100.00;98873.88;8244024;28;19930;-76
2022/11/15 01:49:34;;;;;;;;;;;;;;;11.17;100.00;98871.25;8260626;28;19984;-76
2022/11/15 01:53:38;;;;;;;;;;;;;;;11.15;100.00;98865.22;8246754;28;20362;-77
2022/11/15 01:57:41;;;;;;;;;;;;;;;11.13;100.00;98871.28;8266373;28;19996;-80
2022/11/15 02:01:42;;;;;;;;;;;;;;;11.08;100.00;98855.78;8235420;28;20366;-78
2022/11/15 02:05:44;;;;;;;;;;;;;;;11.06;100.00;98861.88;8265174;28;19936;-79
2022/11/15 02:09:45;;;;;;;;;;;;;;;11.03;100.00;98855.00;8230276;28;19929;-78
2022/11/15 02:13:47;;;;;;;;;;;;;;;11.01;100.00;98843.78;8266306;28;19991;-77
2022/11/15 02:18:07;;;;;;;;;;;;;;;11.00;100.00;98849.00;8241148;28;19930;-79
2022/11/15 02:22:34;;;;;;;;;;;;;;;10.94;100.00;98828.28;8264743;28;20772;-77
2022/11/15 02:26:48;;;;;;;;;;;;;;;10.93;100.00;98830.03;8229501;28;19973;-77
2022/11/15 02:30:49;;;;;;;;;;;;;;;10.92;100.00;98830.91;8239349;28;19929;-77
2022/11/15 02:34:51;;;;;;;;;;;;;;;10.92;100.00;98833.50;8245741;28;19930;-77
2022/11/15 02:39:02;;;;;;;;;;;;;;;10.94;100.00;98825.69;8247820;28;19929;-77
2022/11/15 02:47:37;;;;;;;;;;;;;;;10.94;100.00;98815.31;8251612;28;19941;-77
2022/11/15 02:51:39;;;;;;;;;;;;;;;10.93;100.00;98811.84;8266228;28;20356;-78
2022/11/15 02:55:46;;;;;;;;;;;;;;;10.90;100.00;98817.94;8249766;28;19930;-79
2022/11/15 03:00:03;;;;;;;;;;;;;;;10.92;100.00;98811.88;8265956;28;19929;-77
2022/11/15 03:04:20;;;;;;;;;;;;;;;10.92;100.00;98804.09;8253725;28;19929;-79
2022/11/15 03:08:43;;;;;;;;;;;;;;;10.92;100.00;98806.69;8264683;28;19929;-81
2022/11/15 03:12:44;;;;;;;;;;;;;;;10.91;100.00;98803.22;8254694;28;19937;-77
2022/11/15 03:16:50;;;;;;;;;;;;;;;10.88;100.00;98804.13;8248375;28;19937;-77
2022/11/15 03:20:53;;;;;;;;;;;;;;;10.85;100.00;98799.00;8251295;28;19980;-77
2022/11/15 03:24:57;;;;;;;;;;;;;;;10.81;100.00;98799.94;8234231;28;19933;-78
2022/11/15 03:29:04;;;;;;;;;;;;;;;10.79;100.00;98798.25;8238708;28;20575;-77
2022/11/15 03:33:07;;;;;;;;;;;;;;;10.77;100.00;98792.19;8261112;28;20674;-80
2022/11/15 03:37:11;;;;;;;;;;;;;;;10.74;100.00;98781.84;8259610;28;19929;-79
2022/11/15 03:41:20;;;;;;;;;;;;;;;10.71;100.00;98774.97;8273402;28;19991;-80
2022/11/15 03:45:21;;;;;;;;;;;;;;;10.69;100.00;98786.25;8247599;28;20153;-78
2022/11/15 03:49:27;;;;;;;;;;;;;;;10.64;100.00;98782.88;8255786;28;19925;-78
2022/11/15 03:53:28;;;;;;;;;;;;;;;10.55;100.00;98776.91;8239240;28;20025;-78
2022/11/15 03:57:30;;;;;;;;;;;;;;;10.55;100.00;98774.31;8245382;28;20383;-77
2022/11/15 04:01:31;;;;;;;;;;;;;;;10.55;100.00;98771.72;8237939;28;19980;-78
2022/11/15 04:05:33;;;;;;;;;;;;;;;10.54;100.00;98769.16;8267824;28;19934;-79
2022/11/15 04:10:01;;;;;;;;;;;;;;;10.55;100.00;98773.47;8236143;28;19937;-78
2022/11/15 04:13:56;;;;;;;;;;;;;;;10.56;100.00;98767.41;8260896;28;19929;-77
2022/11/15 04:17:57;;;;;;;;;;;;;;;10.60;100.00;98771.69;8240506;28;19929;-78
2022/11/15 04:26:21;;;;;;;;;;;;;;;10.63;100.00;98770.78;8263432;28;19936;-78
2022/11/15 04:30:22;;;;;;;;;;;;;;;10.67;100.00;98768.09;8247658;28;20626;-77
2022/11/15 04:34:24;;;;;;;;;;;;;;;10.69;100.00;98775.88;8273535;28;20024;-78
2022/11/15 04:38:25;;;;;;;;;;;;;;;10.69;100.00;98768.94;8249211;28;20294;-77
2022/11/15 04:42:26;;;;;;;;;;;;;;;10.69;100.00;98765.47;8244842;28;19933;-77
2022/11/15 04:46:28;;;;;;;;;;;;;;;10.69;100.00;98765.47;8250974;28;20005;-78
2022/11/15 04:50:29;;;;;;;;;;;;;;;10.69;100.00;98762.88;8257866;28;20734;-79
2022/11/15 04:54:30;;;;;;;;;;;;;;;10.69;100.00;98770.69;8246947;28;19953;-77
2022/11/15 04:58:32;;;;;;;;;;;;;;;10.70;100.00;98764.59;8244718;28;19935;-76
2022/11/15 05:06:53;;;;;;;;;;;;;;;10.61;100.00;98763.00;8266971;28;19925;-77
2022/11/15 05:10:54;;;;;;;;;;;;;;;10.60;100.00;98761.31;8228306;28;19929;-77
2022/11/15 05:14:55;;;;;;;;;;;;;;;10.58;100.00;98753.50;8263550;28;19933;-77
2022/11/15 05:18:57;;;;;;;;;;;;;;;10.57;100.00;98756.13;8241765;28;19960;-80
2022/11/15 05:22:58;;;;;;;;;;;;;;;10.53;100.00;98747.53;8252166;28;20333;-78
2022/11/15 05:26:59;;;;;;;;;;;;;;;10.51;100.00;98757.09;8240968;28;20259;-78
2022/11/15 05:31:01;;;;;;;;;;;;;;;10.47;100.00;98750.22;8249880;28;20008;-78
2022/11/15 05:35:05;;;;;;;;;;;;;;;10.44;100.00;98752.03;8262300;28;19934;-78
2022/11/15 05:39:07;;;;;;;;;;;;;;;10.37;100.00;98748.63;8269553;28;19930;-77
2022/11/15 05:43:10;;;;;;;;;;;;;;;10.33;100.00;98756.47;8241783;28;19930;-79
2022/11/15 05:47:15;;;;;;;;;;;;;;;10.31;100.00;98740.09;8245019;28;20020;-78
2022/11/15 05:51:17;;;;;;;;;;;;;;;10.25;100.00;98739.28;8254574;28;19933;-79
2022/11/15 05:55:19;;;;;;;;;;;;;;;10.22;100.00;98741.91;8252812;28;19939;-78
2022/11/15 05:59:20;;;;;;;;;;;;;;;10.19;100.00;98756.63;8254562;28;19937;-79
2022/11/15 06:03:21;;;;;;;;;;;;;;;10.17;100.00;98756.66;8226208;28;20313;-80
2022/11/15 06:07:23;;;;;;;;;;;;;;;10.17;100.00;98754.06;8227130;28;19929;-79
2022/11/15 06:11:24;;;;;;;;;;;;;;;10.13;100.00;98744.59;8234018;28;19950;-78
2022/11/15 06:15:25;;;;;;;;;;;;;;;10.09;100.00;98739.50;8240850;28;19984;-77
2022/11/15 06:19:27;;;;;;;;;;;;;;;10.07;100.00;98741.25;8235947;28;20310;-78
2022/11/15 06:23:31;;;;;;;;;;;;;;;10.06;100.00;98740.38;8261119;28;19936;-79
2022/11/15 06:27:32;;;;;;;;;;;;;;;10.05;100.00;98741.22;8257908;28;20296;-78
2022/11/15 06:31:34;;;;;;;;;;;;;;;10.03;100.00;98745.59;8257118;28;19934;-79
2022/11/15 06:35:36;;;;;;;;;;;;;;;10.01;100.00;98747.34;8267458;28;20353;-77
2022/11/15 06:39:37;;;;;;;;;;;;;;;10.00;100.00;98745.63;8299206;28;19930;-79
2022/11/15 06:43:39;;;;;;;;;;;;;;;9.98;100.00;98744.78;8293580;28;19986;-78
2022/11/15 06:47:45;;;;;;;;;;;;;;;9.97;100.00;98756.06;8290888;28;19934;-78
2022/11/15 06:51:46;;;;;;;;;;;;;;;10.00;100.00;98753.41;8298841;28;19937;-79
2022/11/15 06:55:48;;;;;;;;;;;;;;;9.96;100.00;98762.13;8274062;28;20024;-78
2022/11/15 06:59:55;;;;;;;;;;;;;;;9.95;100.00;98755.22;8306768;28;19956;-77
2022/11/15 07:03:56;;;;;;;;;;;;;;;9.97;100.00;98761.22;8291944;28;21188;-79
2022/11/15 07:07:58;;;;;;;;;;;;;;;10.02;100.00;98763.75;8304418;28;20701;-78
2022/11/15 07:11:59;;;;;;;;;;;;;;;10.06;100.00;98755.94;8287515;28;20008;-80
2022/11/15 07:16:09;;;;;;;;;;;;;;;10.10;100.00;98757.63;8294258;28;19929;-78
2022/11/15 07:20:10;;;;;;;;;;;;;;;10.18;100.00;98765.28;8298710;28;19929;-78
2022/11/15 07:24:11;;;;;;;;;;;;;;;10.19;100.00;98759.22;8272759;28;19925;-79
2022/11/15 07:28:13;;;;;;;;;;;;;;;10.20;100.00;98756.59;8297119;28;19933;-80
2022/11/15 07:32:14;;;;;;;;;;;;;;;10.23;100.00;98755.72;8281807;28;19930;-79
2022/11/15 07:36:16;;;;;;;;;;;;;;;10.23;100.00;98754.03;8231060;28;20403;-81
2022/11/15 07:40:17;;;;;;;;;;;;;;;10.28;100.00;98751.38;8216256;28;19934;-81
2022/11/15 07:44:18;;;;;;;;;;;;;;;10.29;100.00;98753.09;8205706;28;19926;-83
2022/11/15 07:48:19;;;;;;;;;;;;;;;10.33;100.00;98759.94;8236700;28;19940;-79
2022/11/15 07:52:21;;;;;;;;;;;;;;;10.37;100.00;98755.56;8251648;28;20518;-78
2022/11/15 07:56:22;;;;;;;;;;;;;;;10.40;100.00;98748.56;8255437;28;19933;-78
2022/11/15 08:00:24;;;;;;;;;;;;;;;10.47;100.00;98752.81;8236776;28;19992;-79
2022/11/15 08:04:25;;;;;;;;;;;;;;;10.52;100.00;98750.16;8256386;28;19940;-78
2022/11/15 08:08:26;;;;;;;;;;;;;;;10.57;100.00;98744.00;8225278;28;19933;-78
2022/11/15 08:12:28;;;;;;;;;;;;;;;10.60;100.00;98750.91;8242213;28;19940;-78
2022/11/15 08:16:30;;;;;;;;;;;;;;;10.62;100.00;98743.97;8235892;28;19988;-77
2022/11/15 08:20:32;;;;;;;;;;;;;;;10.66;100.00;98744.75;8253588;28;20214;-78
2022/11/15 08:24:33;;;;;;;;;;;;;;;10.69;100.00;98745.56;8259517;28;19933;-78
2022/11/15 08:28:35;;;;;;;;;;;;;;;10.74;100.00;98741.16;8239305;28;19930;-77
2022/11/15 08:32:36;;;;;;;;;;;;;;;10.82;100.00;98733.25;8237616;28;20417;-78
2022/11/15 08:36:38;;;;;;;;;;;;;;;10.88;100.00;98720.16;8242838;28;19947;-77
2022/11/15 08:40:46;;;;;;;;;;;;;;;10.96;100.00;98722.66;8242277;28;19930;-79
2022/11/15 08:44:47;;;;;;;;;;;;;;;11.01;100.00;98719.09;8251068;28;20459;-78
2022/11/15 08:48:49;;;;;;;;;;;;;;;11.08;100.00;98717.22;8276973;28;19933;-76
2022/11/15 08:52:50;;;;;;;;;;;;;;;11.14;100.00;98711.94;8265208;28;19930;-78
2022/11/15 08:56:52;;;;;;;;;;;;;;;11.19;100.00;98710.97;8298182;28;19984;-78
2022/11/15 09:00:53;;;;;;;;;;;;;;;11.24;100.00;98713.47;8285034;28;19926;-77
2022/11/15 09:04:54;;;;;;;;;;;;;;;11.31;100.00;98715.09;8275760;28;20421;-78
2022/11/15 09:08:56;;;;;;;;;;;;;;;11.34;100.00;98724.59;8257600;28;19930;-78
2022/11/15 09:12:58;;;;;;;;;;;;;;;11.38;100.00;98721.03;8272643;28;20346;-78
2022/11/15 09:16:59;;;;;;;;;;;;;;;11.44;100.00;98726.09;8268112;28;19957;-78
2022/11/15 09:21:02;;;;;;;;;;;;;;;11.48;100.00;98718.22;8253388;28;19929;-78
2022/11/15 09:25:04;;;;;;;;;;;;;;;11.54;100.00;98717.25;8268749;28;19929;-78
2022/11/15 09:29:11;;;;;;;;;;;;;;;11.60;100.00;98706.72;8269717;28;20347;-77
2022/11/15 09:33:12;;;;;;;;;;;;;;;11.70;100.00;98697.88;8267419;28;19968;-78
2022/11/15 09:37:14;;;;;;;;;;;;;;;11.83;100.00;98690.69;8241687;28;19948;-78
2022/11/15 09:41:22;;;;;;;;;;;;;;;11.94;100.00;98683.53;8241489;28;19930;-77
2022/11/15 09:45:40;;;;;;;;;;;;;;;12.01;100.00;98676.44;8237328;28;19934;-77
2022/11/15 09:49:42;;;;;;;;;;;;;;;12.09;99.90;98674.53;8238017;28;20313;-77
2022/11/15 09:53:55;;;;;;;;;;;;;;;12.14;98.58;98677.91;8252788;28;19991;-76
2022/11/15 09:58:26;;;;;;;;;;;;;;;12.18;98.12;98666.50;8235084;28;20003;-77
2022/11/15 10:02:49;;;;;;;;;;;;;;;12.28;97.66;98655.03;8231307;28;20008;-77
2022/11/15 10:07:26;;;;;;;;;;;;;;;12.39;96.30;98658.25;8250811;28;19936;-77
2022/11/15 10:11:30;;;;;;;;;;;;;;;12.50;95.43;98657.97;8104383;28;20391;-77
2022/11/15 10:15:42;;;;;;;;;;;;;;;12.56;94.98;98656.94;8231996;28;19944;-77
2022/11/15 10:20:03;;;;;;;;;;;;;;;12.60;93.75;98656.00;8235934;28;19985;-77
2022/11/15 10:24:15;;;;;;;;;;;;;;;12.61;93.26;98655.13;8238058;28;20350;-77
2022/11/15 10:28:21;;;;;;;;;;;;;;;12.68;92.69;98644.50;8254874;28;19932;-77
2022/11/15 10:32:22;;;;;;;;;;;;;;;12.87;91.68;98642.28;8240886;28;19929;-77
2022/11/15 10:36:25;;;;;;;;;;;;;;;13.00;92.06;98632.41;8268207;28;20540;-77
2022/11/15 10:40:26;;;;;;;;;;;;;;;12.99;90.06;98615.91;8244967;28;20385;-77
2022/11/15 10:44:29;;;;;;;;;;;;;;;12.97;89.32;98606.44;8262116;28;20669;-77
2022/11/15 10:48:31;;;;;;;;;;;;;;;12.97;89.45;98604.69;8215177;28;19988;-77
2022/11/15 10:52:35;;;;;;;;;;;;;;;12.98;89.05;98595.09;8209026;28;19942;-77
2022/11/15 10:56:36;;;;;;;;;;;;;;;12.96;88.27;98592.53;8198416;28;20001;-77
2022/11/15 11:00:41;;;;;;;;;;;;;;;13.00;89.53;98572.47;8230293;28;19934;-77
2022/11/15 11:04:50;;;;;;;;;;;;;;;13.13;88.92;98570.38;8195464;28;19977;-77
2022/11/15 11:09:03;;;;;;;;;;;;;;;13.26;88.20;98559.56;8217303;28;20339;-77
2022/11/15 11:13:15;;;;;;;;;;;;;;;13.40;86.30;98555.72;8225289;28;19937;-77
2022/11/15 11:17:36;;;;;;;;;;;;;;;13.46;82.86;98551.16;8234560;28;19930;-77
2022/11/15 11:21:49;;;;;;;;;;;;;;;13.52;82.40;98544.94;8220992;28;19930;-77
2022/11/15 11:25:52;;;;;;;;;;;;;;;13.52;82.17;98540.59;8222354;28;19929;-77
2022/11/15 11:30:03;;;;;;;;;;;;;;;13.52;82.31;98529.28;8201062;28;20419;-77
2022/11/15 11:34:16;;;;;;;;;;;;;;;13.54;82.38;98512.69;8231020;28;19930;-77
2022/11/15 11:38:23;;;;;;;;;;;;;;;13.59;82.32;98509.94;8270709;28;20318;-77
2022/11/15 11:42:45;;;;;;;;;;;;;;;13.61;82.12;98501.16;8258431;28;19933;-78
2022/11/15 11:47:01;;;;;;;;;;;;;;;13.60;81.74;98496.84;8279302;28;20247;-77
2022/11/15 11:51:59;;;;;;;;;;;;;;;13.61;81.24;98482.91;8298574;28;19929;-77
2022/11/15 11:56:26;;;;;;;;;;;;;;;13.77;81.62;98474.59;8283702;28;19929;-78
2022/11/15 12:00:38;;;;;;;;;;;;;;;13.86;80.43;98469.09;8274791;28;20686;-78
2022/11/15 12:04:52;;;;;;;;;;;;;;;14.00;80.54;98460.78;8295801;28;19939;-78
2022/11/15 12:09:29;;;;;;;;;;;;;;;14.13;80.14;98455.13;8283415;28;19992;-77
2022/11/15 12:13:36;;;;;;;;;;;;;;;14.17;79.19;98442.81;8293668;28;19929;-77
2022/11/15 12:17:55;;;;;;;;;;;;;;;14.24;78.73;98428.66;8296094;28;19940;-77
2022/11/15 12:22:20;;;;;;;;;;;;;;;14.25;78.94;98417.31;8301952;28;19929;-78
2022/11/15 12:26:32;;;;;;;;;;;;;;;14.28;77.84;98413.72;8298382;28;19937;-77
2022/11/15 12:31:09;;;;;;;;;;;;;;;14.24;77.39;98405.16;8273514;28;19929;-78
2022/11/15 12:35:22;;;;;;;;;;;;;;;14.21;76.77;98393.06;8261871;28;19930;-78
2022/11/15 12:39:43;;;;;;;;;;;;;;;14.18;74.95;98389.69;8265593;28;19930;-77
2022/11/15 12:44:02;;;;;;;;;;;;;;;14.19;75.20;98394.88;8249068;28;19936;-77
2022/11/15 12:48:34;;;;;;;;;;;;;;;14.21;75.91;98387.00;8241208;28;20289;-77
2022/11/15 12:53:18;;;;;;;;;;;;;;;14.27;76.51;98375.47;8245682;28;20474;-77
2022/11/15 12:57:45;;;;;;;;;;;;;;;14.34;77.56;98379.56;8247295;28;20036;-78
2022/11/15 13:02:53;;;;;;;;;;;;;;;14.41;76.99;98371.47;8252078;28;19969;-78
2022/11/15 13:07:04;;;;;;;;;;;;;;;14.48;76.77;98367.75;8233969;28;19930;-78
2022/11/15 13:11:26;;;;;;;;;;;;;;;14.52;77.56;98358.03;8234379;28;20000;-79
2022/11/15 13:15:52;;;;;;;;;;;;;;;14.53;76.06;98349.28;8199680;28;20606;-78
2022/11/15 13:20:15;;;;;;;;;;;;;;;14.56;75.61;98341.34;8244907;28;19975;-78
2022/11/15 13:24:18;;;;;;;;;;;;;;;14.64;76.02;98330.59;8264591;28;19929;-78
2022/11/15 13:28:32;;;;;;;;;;;;;;;14.65;76.15;98325.31;8257259;28;20319;-78
2022/11/15 13:32:44;;;;;;;;;;;;;;;14.69;76.15;98315.59;8233135;28;19934;-78
2022/11/15 13:37:18;;;;;;;;;;;;;;;14.68;75.75;98308.66;8259949;28;19929;-78
2022/11/15 13:41:34;;;;;;;;;;;;;;;14.61;75.31;98299.38;8265021;28;20017;-78
2022/11/15 13:45:41;;;;;;;;;;;;;;;14.54;76.10;98290.91;8238857;28;19933;-78
2022/11/15 13:50:38;;;;;;;;;;;;;;;14.51;76.12;98281.41;8237935;28;20039;-78
2022/11/15 13:55:07;;;;;;;;;;;;;;;14.50;75.43;98277.09;8231568;28;20545;-77
2022/11/15 13:59:49;;;;;;;;;;;;;;;14.52;77.01;98262.22;8258522;28;19961;-78
2022/11/15 14:27:36;;;;;;;;;;;;;;;14.61;77.40;98224.47;10417411;22;19992;-77
2022/11/15 14:31:46;;;;;;;;;;;;;;;14.52;77.00;98225.66;10312955;23;19931;-77
2022/11/15 14:35:55;;;;;;;;;;;;;;;14.45;78.18;98216.38;10331529;23;19924;-78
2022/11/15 14:45:23;;;;;;;;;;;;;;;14.21;79.10;98206.84;10297920;23;20010;-77
2022/11/15 14:49:29;;;;;;;;;;;;;;;14.13;79.71;98194.06;10241484;23;19924;-77
2022/11/15 14:53:31;;;;;;;;;;;;;;;14.11;79.52;98205.47;10240529;23;19928;-78
2022/11/15 14:57:38;;;;;;;;;;;;;;;14.04;79.63;98199.66;10238237;23;20340;-77
2022/11/15 15:01:54;;;;;;;;;;;;;;;13.97;80.09;98194.69;10230015;23;19924;-77
2022/11/15 15:06:13;;;;;;;;;;;;;;;13.90;80.02;98187.09;10242592;23;19925;-77
2022/11/15 15:10:45;;;;;;;;;;;;;;;13.84;80.31;98179.50;10239660;23;19998;-77
2022/11/15 15:15:28;;;;;;;;;;;;;;;13.80;80.84;98174.44;10230161;23;19996;-77
2022/11/15 15:19:44;;;;;;;;;;;;;;;13.73;80.83;98167.75;10226106;23;20442;-77
2022/11/15 15:24:17;;;;;;;;;;;;;;;13.63;81.55;98162.00;10227956;23;19924;-77
2022/11/15 15:28:23;;;;;;;;;;;;;;;13.59;81.17;98158.66;10288296;23;19969;-77
2022/11/15 15:32:49;;;;;;;;;;;;;;;13.50;81.54;98151.19;10249993;23;19955;-77
2022/11/15 15:37:11;;;;;;;;;;;;;;;13.44;82.48;98156.59;10251605;23;19935;-77
2022/11/15 15:41:41;;;;;;;;;;;;;;;13.39;82.93;98155.94;10278577;23;19924;-78
2022/11/15 15:46:08;;;;;;;;;;;;;;;13.36;82.62;98156.03;10259876;23;19919;-78
2022/11/15 15:50:29;;;;;;;;;;;;;;;13.29;82.85;98162.41;10251168;23;19971;-78
2022/11/15 15:55:06;;;;;;;;;;;;;;;13.26;83.03;98163.31;10260530;23;19950;-78
2022/11/15 15:59:22;;;;;;;;;;;;;;;13.22;83.94;98155.69;10283309;23;19928;-77
2022/11/15 16:03:35;;;;;;;;;;;;;;;13.14;84.76;98152.47;10253042;23;19924;-77
2022/11/15 16:07:52;;;;;;;;;;;;;;;13.06;85.58;98152.72;10279520;23;20307;-78
2022/11/15 16:11:59;;;;;;;;;;;;;;;13.00;85.39;98137.28;10279896;23;19924;-78
2022/11/15 16:16:13;;;;;;;;;;;;;;;13.01;84.98;98134.63;10252132;23;19920;-78
2022/11/15 16:20:24;;;;;;;;;;;;;;;12.97;86.28;98138.25;10255116;23;19931;-78
2022/11/15 16:24:37;;;;;;;;;;;;;;;12.93;86.80;98134.06;10260712;23;19999;-78
2022/11/15 16:28:58;;;;;;;;;;;;;;;12.91;86.90;98135.00;10228373;23;19924;-77
2022/11/15 16:33:20;;;;;;;;;;;;;;;12.87;86.79;98131.63;10232715;23;20290;-77
2022/11/15 16:37:36;;;;;;;;;;;;;;;12.86;86.85;98129.09;10275328;23;20306;-77
2022/11/15 16:41:53;;;;;;;;;;;;;;;12.84;86.82;98134.34;10252690;23;20031;-76
2022/11/15 16:45:55;;;;;;;;;;;;;;;12.83;86.81;98111.81;10240986;23;20007;-76
2022/11/15 16:49:56;;;;;;;;;;;;;;;12.78;87.44;98107.69;10247810;23;19963;-76
2022/11/15 16:53:57;;;;;;;;;;;;;;;12.75;87.49;98105.16;10247768;23;20306;-76
2022/11/15 16:58:00;;;;;;;;;;;;;;;12.79;87.39;98101.56;10222579;23;19928;-76
2022/11/15 17:02:02;;;;;;;;;;;;;;;12.75;87.38;98102.53;10240217;23;19923;-76
2022/11/15 17:06:03;;;;;;;;;;;;;;;12.70;88.25;98102.69;10220312;23;19999;-76
2022/11/15 17:10:06;;;;;;;;;;;;;;;12.66;88.67;98109.78;10222944;23;19924;-76
2022/11/15 17:14:07;;;;;;;;;;;;;;;12.63;88.50;98106.44;10246972;23;20019;-76
2022/11/15 17:18:11;;;;;;;;;;;;;;;12.60;89.27;98101.31;10265309;23;20387;-76
2022/11/15 17:22:13;;;;;;;;;;;;;;;12.58;89.23;98108.34;10273630;23;19924;-76
2022/11/15 17:26:15;;;;;;;;;;;;;;;12.54;89.75;98096.31;10246318;23;19966;-75
2022/11/15 17:30:39;;;;;;;;;;;;;;;12.48;91.01;98097.38;10242700;23;19986;-76
2022/11/15 17:34:40;;;;;;;;;;;;;;;12.45;91.93;98088.81;10271315;23;19924;-76
2022/11/15 17:38:42;;;;;;;;;;;;;;;12.36;92.72;98095.16;10269634;23;20050;-76
2022/11/15 17:42:43;;;;;;;;;;;;;;;12.32;93.37;98088.34;10237904;23;19924;-76
2022/11/15 17:46:44;;;;;;;;;;;;;;;12.27;93.90;98079.84;10228575;23;20673;-77
2022/11/15 17:50:59;;;;;;;;;;;;;;;12.22;95.03;98072.19;10215276;23;20010;-75
2022/11/15 17:55:01;;;;;;;;;;;;;;;12.17;95.85;98076.69;10245027;23;20043;-76
2022/11/15 17:59:02;;;;;;;;;;;;;;;12.14;95.59;98076.78;10221188;23;20369;-78
2022/11/15 18:03:08;;;;;;;;;;;;;;;12.07;97.02;98067.47;10239079;23;19998;-76
2022/11/15 18:07:11;;;;;;;;;;;;;;;12.02;97.62;98061.53;10243198;23;19928;-76
2022/11/15 18:11:17;;;;;;;;;;;;;;;12.00;97.79;98061.59;10219167;23;19924;-76
2022/11/15 18:15:20;;;;;;;;;;;;;;;11.97;97.92;98055.66;10212912;23;20390;-77
2022/11/15 18:19:21;;;;;;;;;;;;;;;11.94;98.52;98054.00;10244093;23;19947;-76
2022/11/15 18:23:23;;;;;;;;;;;;;;;11.91;98.80;98056.69;10246008;23;19924;-76
2022/11/15 18:27:24;;;;;;;;;;;;;;;11.87;99.03;98056.84;10244173;23;19926;-76
2022/11/15 18:31:27;;;;;;;;;;;;;;;11.84;99.24;98044.75;10262817;23;19923;-76
2022/11/15 18:35:28;;;;;;;;;;;;;;;11.82;100.00;98045.72;10244161;23;19924;-76
2022/11/15 18:39:30;;;;;;;;;;;;;;;11.80;99.89;98035.38;10270836;23;20329;-77
2022/11/15 18:43:32;;;;;;;;;;;;;;;11.79;100.00;98036.25;10244825;23;19928;-77
2022/11/15 18:47:34;;;;;;;;;;;;;;;11.79;100.00;98031.06;10237441;23;19924;-79
2022/11/15 18:51:36;;;;;;;;;;;;;;;11.75;100.00;98029.44;10248402;23;20002;-77
2022/11/15 18:55:37;;;;;;;;;;;;;;;11.74;100.00;98035.53;10250777;23;19924;-77
2022/11/15 18:59:39;;;;;;;;;;;;;;;11.72;100.00;98027.78;10251194;23;19989;-78
2022/11/15 19:03:41;;;;;;;;;;;;;;;11.74;100.00;98018.19;10243624;23;19924;-77
2022/11/15 19:07:46;;;;;;;;;;;;;;;11.77;100.00;98018.06;10276140;23;19991;-78
2022/11/15 19:11:47;;;;;;;;;;;;;;;11.78;100.00;98011.13;10274135;23;20266;-77
2022/11/15 19:15:55;;;;;;;;;;;;;;;11.81;100.00;98011.06;10238550;23;19978;-78
2022/11/15 19:19:57;;;;;;;;;;;;;;;11.82;100.00;97997.16;10274323;23;19958;-77
2022/11/15 19:23:58;;;;;;;;;;;;;;;11.83;100.00;97985.00;10247590;23;19930;-78
2022/11/15 19:28:00;;;;;;;;;;;;;;;11.85;100.00;97985.78;10246507;23;20583;-77
2022/11/15 19:32:02;;;;;;;;;;;;;;;11.82;100.00;97991.09;10239166;23;19928;-79
2022/11/15 19:36:05;;;;;;;;;;;;;;;11.81;100.00;97985.06;10246533;23;20376;-77
2022/11/15 19:40:07;;;;;;;;;;;;;;;11.81;100.00;97982.44;10247589;23;19985;-78
2022/11/15 19:44:09;;;;;;;;;;;;;;;11.80;100.00;97981.59;10246782;23;19928;-77
2022/11/15 19:48:10;;;;;;;;;;;;;;;11.80;100.00;97979.00;10214171;23;19927;-77
2022/11/15 19:52:12;;;;;;;;;;;;;;;11.83;100.00;97979.78;10245269;23;19927;-77
2022/11/15 19:56:15;;;;;;;;;;;;;;;11.82;100.00;97972.91;10272513;23;19924;-77
2022/11/15 20:00:16;;;;;;;;;;;;;;;11.85;100.00;97973.69;10265933;23;20572;-77
2022/11/15 20:04:18;;;;;;;;;;;;;;;11.88;100.00;97970.97;10244938;23;19931;-77
2022/11/15 20:08:19;;;;;;;;;;;;;;;11.88;100.00;97972.72;10222638;23;20007;-79
2022/11/15 20:12:20;;;;;;;;;;;;;;;11.88;100.00;97967.53;10247605;23;19932;-78
2022/11/15 20:16:22;;;;;;;;;;;;;;;11.87;100.00;97969.28;10265740;23;19951;-78
2022/11/15 20:20:24;;;;;;;;;;;;;;;11.88;100.00;97970.13;10248868;23;19924;-78
2022/11/15 20:24:26;;;;;;;;;;;;;;;11.88;100.00;97968.38;10248846;23;19924;-77
2022/11/15 20:28:28;;;;;;;;;;;;;;;11.89;100.00;97971.81;10273191;23;19930;-79
2022/11/15 20:32:30;;;;;;;;;;;;;;;11.90;100.00;97968.31;10265698;23;19952;-79
2022/11/15 20:36:31;;;;;;;;;;;;;;;11.91;100.00;97970.88;10247321;23;19924;-78
2022/11/15 20:40:33;;;;;;;;;;;;;;;11.89;100.00;97957.06;10273657;23;19928;-77
2022/11/15 20:44:34;;;;;;;;;;;;;;;11.88;100.00;97963.16;10262892;23;20484;-77
2022/11/15 20:48:36;;;;;;;;;;;;;;;11.91;100.00;97959.59;10214349;23;19924;-78
2022/11/15 20:52:38;;;;;;;;;;;;;;;11.90;100.00;97950.97;10245566;23;20303;-77
2022/11/15 20:56:39;;;;;;;;;;;;;;;11.90;100.00;97945.75;10248577;23;20276;-78
2022/11/15 21:00:41;;;;;;;;;;;;;;;11.89;100.00;97933.66;10265857;23;19935;-77
2022/11/15 21:04:43;;;;;;;;;;;;;;;11.91;100.00;97925.78;10247266;23;19927;-77
2022/11/15 21:13:08;;;;;;;;;;;;;;;11.88;100.00;97921.56;10246818;23;20034;-77
2022/11/15 21:17:09;;;;;;;;;;;;;;;11.88;100.00;97921.56;10235764;23;20422;-77
2022/11/15 21:21:10;;;;;;;;;;;;;;;11.89;100.00;97918.03;10245277;23;19959;-78
2022/11/15 21:25:12;;;;;;;;;;;;;;;11.89;100.00;97914.59;10221926;23;20003;-78
2022/11/15 21:29:15;;;;;;;;;;;;;;;11.88;100.00;97903.34;10249104;23;20351;-77
2022/11/15 21:33:17;;;;;;;;;;;;;;;11.90;100.00;97908.50;10268533;23;19928;-79
2022/11/15 21:37:18;;;;;;;;;;;;;;;11.89;100.00;97901.59;10246068;23;19923;-77
2022/11/15 21:41:20;;;;;;;;;;;;;;;11.90;100.00;97895.50;10222377;23;19927;-78
2022/11/15 21:45:21;;;;;;;;;;;;;;;11.89;100.00;97897.25;10217404;23;20469;-78
2022/11/15 21:49:22;;;;;;;;;;;;;;;11.91;100.00;97889.38;10247356;23;20370;-79
2022/11/15 21:53:24;;;;;;;;;;;;;;;11.90;100.00;97891.13;10272527;23;19959;-77
2022/11/15 21:57:29;;;;;;;;;;;;;;;11.91;100.00;97886.78;10251653;23;20015;-78
2022/11/15 22:05:50;;;;;;;;;;;;;;;11.90;100.00;97880.72;10273827;23;20259;-77